Time;durP1;ratioP1;P1;durP2;ratioP2;P2;SDS_P1;SDS_P2;PMS_P1;PMS_P2;Temp;Humidity;BMP_temperature;BMP_pressure;BME280_temperature;BME280_humidity;BME280_pressure;Samples;Min_cycle;Max_cycle;Signal;HPM_P1;HPM_P2
2024/01/04 00:00:34;;;;;;;;;;;16.10;85.80;;;;;;5072967;28;20287;-76
2024/01/04 00:03:00;;;;;;;;;;;16.10;85.20;;;;;;5072228;28;19927;-76
2024/01/04 00:05:25;;;;;;;;;;;16.10;85.70;;;;;;5072777;28;19915;-76
2024/01/04 00:07:51;;;;;;;;;;;16.10;86.00;;;;;;5072662;28;19909;-76
2024/01/04 00:10:18;;;;;;;;;;;16.10;85.20;;;;;;5072458;28;19908;-76
2024/01/04 00:12:48;;;;;;;;;;;16.10;85.40;;;;;;5072379;28;19916;-76
2024/01/04 00:15:29;;;;;;;;;;;16.10;86.40;;;;;;5072343;28;19997;-77
2024/01/04 00:17:55;;;;;;;;;;;16.10;85.80;;;;;;5072527;28;19947;-76
2024/01/04 00:20:24;;;;;;;;;;;16.10;85.80;;;;;;5072611;28;19958;-76
2024/01/04 00:22:50;;;;;;;;;;;16.20;86.00;;;;;;5072208;28;19908;-76
2024/01/04 00:25:16;;;;;;;;;;;16.10;86.00;;;;;;5072531;28;19942;-76
2024/01/04 00:27:42;;;;;;;;;;;16.10;86.40;;;;;;5072489;28;19908;-76
2024/01/04 00:30:08;;;;;;;;;;;16.20;86.20;;;;;;5072496;28;19909;-76
2024/01/04 00:32:37;;;;;;;;;;;16.10;84.80;;;;;;5072473;28;19916;-76
2024/01/04 00:35:03;;;;;;;;;;;16.00;86.50;;;;;;5072154;28;19908;-76
2024/01/04 00:37:28;;;;;;;;;;;16.10;85.10;;;;;;5072106;28;20012;-76
2024/01/04 00:39:54;;;;;;;;;;;16.20;85.80;;;;;;5073095;28;19939;-77
2024/01/04 00:42:20;;;;;;;;;;;16.20;86.10;;;;;;5076224;28;19915;-77
2024/01/04 00:44:46;;;;;;;;;;;16.10;85.90;;;;;;5076224;28;19909;-76
2024/01/04 00:47:12;;;;;;;;;;;16.10;85.90;;;;;;5076147;28;20401;-76
2024/01/04 00:49:38;;;;;;;;;;;16.20;86.10;;;;;;5076408;28;19915;-77
2024/01/04 00:52:03;;;;;;;;;;;16.10;85.90;;;;;;5075788;28;19916;-76
2024/01/04 00:54:29;;;;;;;;;;;16.10;84.50;;;;;;5075793;28;20387;-76
2024/01/04 00:56:54;;;;;;;;;;;16.20;86.00;;;;;;5075755;28;20367;-76
2024/01/04 00:59:20;;;;;;;;;;;16.10;86.10;;;;;;5075620;28;19975;-76
2024/01/04 01:01:45;;;;;;;;;;;16.10;85.70;;;;;;5075658;28;19923;-76
2024/01/04 01:04:11;;;;;;;;;;;16.10;86.00;;;;;;5075405;28;19927;-76
2024/01/04 01:06:36;;;;;;;;;;;16.10;85.80;;;;;;5075790;28;20011;-76
2024/01/04 01:09:02;;;;;;;;;;;16.20;86.00;;;;;;5075435;28;19944;-76
2024/01/04 01:11:27;;;;;;;;;;;16.20;85.50;;;;;;5075435;28;19912;-76
2024/01/04 01:13:53;;;;;;;;;;;16.10;86.10;;;;;;5075352;28;19908;-76
2024/01/04 01:16:18;;;;;;;;;;;16.00;85.80;;;;;;5075276;28;19999;-77
2024/01/04 01:18:44;;;;;;;;;;;16.10;85.80;;;;;;5075860;28;19916;-72
2024/01/04 01:21:09;;;;;;;;;;;16.10;85.90;;;;;;5075171;28;19962;-73
2024/01/04 01:23:35;;;;;;;;;;;16.10;85.90;;;;;;5075510;28;20390;-73
2024/01/04 01:26:02;;;;;;;;;;;16.10;85.70;;;;;;5075156;28;20345;-73
2024/01/04 01:28:28;;;;;;;;;;;16.10;85.70;;;;;;5075142;28;20339;-73
2024/01/04 01:30:54;;;;;;;;;;;16.20;86.00;;;;;;5075356;28;19909;-76
2024/01/04 01:33:19;;;;;;;;;;;16.10;85.60;;;;;;5075042;28;19908;-76
2024/01/04 01:35:45;;;;;;;;;;;16.10;85.70;;;;;;5075127;28;19909;-76
2024/01/04 01:38:10;;;;;;;;;;;16.10;85.60;;;;;;5074887;28;19916;-76
2024/01/04 01:40:36;;;;;;;;;;;16.10;85.50;;;;;;5074979;28;19912;-76
2024/01/04 01:43:01;;;;;;;;;;;16.30;85.80;;;;;;5074934;28;20367;-76
2024/01/04 01:45:27;;;;;;;;;;;16.10;85.70;;;;;;5074784;28;19991;-76
2024/01/04 01:47:52;;;;;;;;;;;16.10;85.50;;;;;;5075275;28;19912;-73
2024/01/04 01:50:20;;;;;;;;;;;16.10;85.60;;;;;;5074601;28;19916;-72
2024/01/04 01:52:46;;;;;;;;;;;16.10;85.70;;;;;;5074928;28;19909;-73
2024/01/04 01:55:13;;;;;;;;;;;16.10;86.00;;;;;;5074618;28;20003;-73
2024/01/04 01:57:38;;;;;;;;;;;16.10;85.90;;;;;;5074841;28;19912;-73
2024/01/04 02:00:04;;;;;;;;;;;16.10;85.40;;;;;;5074488;28;20417;-72
2024/01/04 02:02:29;;;;;;;;;;;16.00;85.20;;;;;;5074328;28;19908;-72
2024/01/04 02:04:55;;;;;;;;;;;16.10;85.60;;;;;;5074377;28;19943;-73
2024/01/04 02:07:21;;;;;;;;;;;16.10;85.40;;;;;;5074353;28;19915;-72
2024/01/04 02:09:47;;;;;;;;;;;16.10;85.60;;;;;;5074595;28;19909;-73
2024/01/04 02:12:13;;;;;;;;;;;16.10;85.40;;;;;;5074251;28;20130;-73
2024/01/04 02:14:42;;;;;;;;;;;16.00;85.40;;;;;;5074328;28;19913;-73
2024/01/04 02:17:07;;;;;;;;;;;16.00;79.90;;;;;;5074250;28;19908;-72
2024/01/04 02:19:33;;;;;;;;;;;16.00;85.50;;;;;;5074000;28;19950;-72
2024/01/04 02:21:59;;;;;;;;;;;16.10;85.40;;;;;;5074174;28;19971;-73
2024/01/04 02:24:25;;;;;;;;;;;16.00;85.70;;;;;;5074011;28;20313;-72
2024/01/04 02:26:51;;;;;;;;;;;16.10;85.30;;;;;;5074392;28;19908;-76
2024/01/04 02:29:16;;;;;;;;;;;16.10;85.70;;;;;;5074055;28;19931;-76
2024/01/04 02:31:43;;;;;;;;;;;16.00;85.50;;;;;;5074011;28;19908;-76
2024/01/04 02:34:08;;;;;;;;;;;16.10;85.60;;;;;;5073896;28;20003;-77
2024/01/04 02:36:34;;;;;;;;;;;16.00;85.90;;;;;;5073708;28;20406;-76
2024/01/04 02:38:59;;;;;;;;;;;16.00;85.60;;;;;;5073742;28;19924;-76
2024/01/04 02:41:25;;;;;;;;;;;16.10;85.50;;;;;;5073620;28;20383;-76
2024/01/04 02:43:50;;;;;;;;;;;16.00;85.20;;;;;;5074239;28;19948;-72
2024/01/04 02:46:16;;;;;;;;;;;16.10;85.60;;;;;;5073652;28;19912;-73
2024/01/04 02:48:41;;;;;;;;;;;16.00;85.50;;;;;;5073497;28;19908;-73
2024/01/04 02:51:07;;;;;;;;;;;16.00;85.60;;;;;;5073466;28;20272;-73
2024/01/04 02:53:33;;;;;;;;;;;16.30;85.80;;;;;;5073453;28;19951;-73
2024/01/04 02:55:58;;;;;;;;;;;16.00;85.30;;;;;;5073511;28;20383;-76
2024/01/04 02:58:26;;;;;;;;;;;16.00;85.40;;;;;;5073414;28;19919;-77
2024/01/04 03:00:51;;;;;;;;;;;16.00;86.20;;;;;;5073328;28;19948;-76
2024/01/04 03:03:17;;;;;;;;;;;16.00;85.00;;;;;;5072509;28;19924;-76
2024/01/04 03:05:42;;;;;;;;;;;15.90;85.30;;;;;;5071952;28;19920;-76
2024/01/04 03:08:08;;;;;;;;;;;15.90;85.20;;;;;;5073208;28;19915;-75
2024/01/04 03:10:33;;;;;;;;;;;16.00;85.20;;;;;;5073072;28;20371;-76
2024/01/04 03:12:58;;;;;;;;;;;16.00;85.50;;;;;;5073695;28;19913;-76
2024/01/04 03:15:24;;;;;;;;;;;15.90;85.30;;;;;;5073109;28;20509;-75
2024/01/04 03:17:49;;;;;;;;;;;16.00;85.30;;;;;;5072984;28;19916;-75
2024/01/04 03:20:15;;;;;;;;;;;15.90;85.40;;;;;;5072897;28;20450;-75
2024/01/04 03:22:41;;;;;;;;;;;15.90;85.20;;;;;;5072861;28;20007;-76
2024/01/04 03:25:09;;;;;;;;;;;15.90;85.30;;;;;;5072970;28;19924;-75
2024/01/04 03:27:35;;;;;;;;;;;15.90;84.60;;;;;;5073083;28;20359;-75
2024/01/04 03:30:01;;;;;;;;;;;16.00;85.30;;;;;;5072847;28;19909;-75
2024/01/04 03:32:27;;;;;;;;;;;15.90;85.40;;;;;;5072740;28;19908;-75
2024/01/04 03:34:53;;;;;;;;;;;15.90;85.20;;;;;;5072745;28;19908;-76
2024/01/04 03:37:19;;;;;;;;;;;15.80;85.20;;;;;;5072745;28;19912;-75
2024/01/04 03:39:45;;;;;;;;;;;15.90;85.40;;;;;;5072822;28;19917;-76
2024/01/04 03:42:11;;;;;;;;;;;15.90;85.30;;;;;;5073552;28;19986;-73
2024/01/04 03:44:37;;;;;;;;;;;15.90;85.30;;;;;;5072602;28;19909;-74
2024/01/04 03:47:04;;;;;;;;;;;15.90;85.40;;;;;;5072563;28;19909;-72
2024/01/04 03:49:31;;;;;;;;;;;16.00;84.80;;;;;;5072602;28;19932;-72
2024/01/04 03:51:57;;;;;;;;;;;16.20;85.50;;;;;;5072802;28;19909;-75
2024/01/04 03:54:23;;;;;;;;;;;15.90;85.40;;;;;;5072956;28;20329;-73
2024/01/04 03:56:49;;;;;;;;;;;15.90;85.30;;;;;;5072764;28;19952;-71
2024/01/04 03:59:15;;;;;;;;;;;15.90;85.30;;;;;;5072387;28;20283;-72
2024/01/04 04:01:42;;;;;;;;;;;15.90;85.00;;;;;;5072350;28;19954;-72
2024/01/04 04:04:08;;;;;;;;;;;15.90;85.70;;;;;;5072297;28;19920;-74
2024/01/04 04:06:34;;;;;;;;;;;15.90;85.40;;;;;;5072350;28;19916;-73
2024/01/04 04:09:00;;;;;;;;;;;15.80;84.90;;;;;;5072822;28;20347;-75
2024/01/04 04:11:25;;;;;;;;;;;15.90;85.70;;;;;;5072779;28;19915;-75
2024/01/04 04:13:52;;;;;;;;;;;15.90;85.70;;;;;;5072556;28;19909;-75
2024/01/04 04:16:17;;;;;;;;;;;15.90;85.80;;;;;;5076435;28;19909;-75
2024/01/04 04:18:43;;;;;;;;;;;15.90;85.70;;;;;;5076671;28;20015;-75
2024/01/04 04:21:17;;;;;;;;;;;15.80;85.60;;;;;;5076567;28;19991;-75
2024/01/04 04:23:47;;;;;;;;;;;15.90;85.90;;;;;;5076750;28;19915;-75
2024/01/04 04:26:13;;;;;;;;;;;15.90;85.40;;;;;;5076955;28;20279;-75
2024/01/04 04:28:39;;;;;;;;;;;15.90;85.50;;;;;;5076426;28;19912;-75
2024/01/04 04:31:11;;;;;;;;;;;15.90;85.80;;;;;;5076500;28;19923;-76
2024/01/04 04:33:36;;;;;;;;;;;15.90;85.90;;;;;;5076596;28;19954;-75
2024/01/04 04:36:03;;;;;;;;;;;15.90;85.70;;;;;;5075970;28;20321;-76
2024/01/04 04:38:29;;;;;;;;;;;15.90;85.40;;;;;;5076528;28;19920;-73
2024/01/04 04:40:55;;;;;;;;;;;16.00;85.70;;;;;;5075907;28;19913;-72
2024/01/04 04:43:20;;;;;;;;;;;15.90;86.00;;;;;;5076235;28;19963;-73
2024/01/04 04:45:46;;;;;;;;;;;15.90;85.80;;;;;;5076172;28;19966;-73
2024/01/04 04:48:12;;;;;;;;;;;16.00;85.70;;;;;;5076130;28;20383;-72
2024/01/04 04:50:38;;;;;;;;;;;16.30;85.90;;;;;;5076291;28;19916;-73
2024/01/04 04:53:04;;;;;;;;;;;16.00;85.70;;;;;;5075692;28;19909;-73
2024/01/04 04:55:30;;;;;;;;;;;15.90;85.60;;;;;;5075959;28;19917;-72
2024/01/04 04:57:56;;;;;;;;;;;16.00;86.10;;;;;;5075657;28;19959;-73
2024/01/04 05:00:22;;;;;;;;;;;16.00;85.60;;;;;;5075781;28;19955;-73
2024/01/04 05:02:48;;;;;;;;;;;15.90;85.20;;;;;;5075619;28;19908;-73
2024/01/04 05:05:14;;;;;;;;;;;16.00;85.90;;;;;;5075866;28;20279;-73
2024/01/04 05:07:40;;;;;;;;;;;15.90;85.70;;;;;;5075468;28;19908;-76
2024/01/04 05:10:06;;;;;;;;;;;15.90;85.60;;;;;;5075714;28;19908;-76
2024/01/04 05:12:33;;;;;;;;;;;16.00;83.80;;;;;;5075423;28;19908;-76
2024/01/04 05:14:59;;;;;;;;;;;16.10;85.60;;;;;;5075404;28;19927;-76
2024/01/04 05:17:25;;;;;;;;;;;15.90;85.40;;;;;;5075622;28;20440;-76
2024/01/04 05:19:51;;;;;;;;;;;16.00;85.70;;;;;;5075558;28;19916;-76
2024/01/04 05:22:17;;;;;;;;;;;16.00;85.30;;;;;;5075542;28;19916;-75
2024/01/04 05:24:43;;;;;;;;;;;15.90;85.30;;;;;;5076069;28;19908;-75
2024/01/04 05:27:09;;;;;;;;;;;16.00;85.60;;;;;;5074920;28;19912;-75
2024/01/04 05:29:35;;;;;;;;;;;16.00;85.50;;;;;;5075105;28;19912;-76
2024/01/04 05:32:02;;;;;;;;;;;15.90;85.20;;;;;;5075128;28;19916;-76
2024/01/04 05:34:32;;;;;;;;;;;16.00;85.30;;;;;;5075051;28;19948;-76
2024/01/04 05:36:58;;;;;;;;;;;15.90;82.50;;;;;;5075354;28;19915;-73
2024/01/04 05:39:25;;;;;;;;;;;15.90;85.40;;;;;;5074847;28;19916;-73
2024/01/04 05:41:51;;;;;;;;;;;16.00;85.00;;;;;;5075239;28;19909;-73
2024/01/04 05:44:17;;;;;;;;;;;16.00;85.40;;;;;;5074866;28;19915;-73
2024/01/04 05:46:43;;;;;;;;;;;16.00;85.30;;;;;;5075146;28;19908;-73
2024/01/04 05:49:09;;;;;;;;;;;16.00;85.40;;;;;;5075069;28;19973;-73
2024/01/04 05:51:34;;;;;;;;;;;16.00;85.30;;;;;;5075052;28;19909;-72
2024/01/04 05:54:02;;;;;;;;;;;16.40;85.40;;;;;;5075243;28;19916;-73
2024/01/04 05:56:29;;;;;;;;;;;15.70;85.20;;;;;;5074848;28;19917;-73
2024/01/04 05:58:55;;;;;;;;;;;16.00;85.50;;;;;;5074884;28;19963;-73
2024/01/04 06:01:21;;;;;;;;;;;16.00;85.30;;;;;;5074810;28;19908;-73
2024/01/04 06:03:47;;;;;;;;;;;15.90;84.90;;;;;;5074409;28;19920;-73
2024/01/04 06:06:16;;;;;;;;;;;16.10;85.50;;;;;;5074749;28;19916;-73
2024/01/04 06:08:42;;;;;;;;;;;16.00;85.70;;;;;;5074695;28;19908;-73
2024/01/04 06:11:09;;;;;;;;;;;16.00;85.40;;;;;;5074305;28;20376;-73
2024/01/04 06:13:37;;;;;;;;;;;16.20;85.90;;;;;;5073808;28;20210;-73
2024/01/04 06:16:07;;;;;;;;;;;16.00;85.40;;;;;;5074499;28;19950;-73
2024/01/04 06:18:33;;;;;;;;;;;16.00;85.90;;;;;;5074378;28;19952;-73
2024/01/04 06:20:59;;;;;;;;;;;16.00;86.00;;;;;;5074337;28;19923;-73
2024/01/04 06:23:25;;;;;;;;;;;15.90;84.30;;;;;;5074839;28;19909;-76
2024/01/04 06:25:51;;;;;;;;;;;16.00;85.90;;;;;;5074088;28;19908;-75
2024/01/04 06:28:17;;;;;;;;;;;16.30;85.70;;;;;;5074260;28;19912;-76
2024/01/04 06:30:43;;;;;;;;;;;16.00;85.80;;;;;;5074223;28;20355;-75
2024/01/04 06:33:09;;;;;;;;;;;16.10;85.80;;;;;;5074260;28;19920;-76
2024/01/04 06:35:35;;;;;;;;;;;16.00;86.00;;;;;;5074144;28;19912;-75
2024/01/04 06:38:04;;;;;;;;;;;16.00;85.40;;;;;;5073264;28;19961;-76
2024/01/04 06:40:30;;;;;;;;;;;16.20;85.90;;;;;;5073935;28;20286;-76
2024/01/04 06:42:56;;;;;;;;;;;16.10;86.00;;;;;;5074044;28;19916;-76
2024/01/04 06:45:22;;;;;;;;;;;16.00;85.80;;;;;;5073950;28;19912;-76
2024/01/04 06:47:49;;;;;;;;;;;16.00;85.80;;;;;;5073816;28;19915;-76
2024/01/04 06:50:15;;;;;;;;;;;16.00;85.90;;;;;;5074396;28;19931;-76
2024/01/04 06:52:40;;;;;;;;;;;16.10;86.00;;;;;;5073464;28;19987;-76
2024/01/04 06:55:07;;;;;;;;;;;17.80;86.80;;;;;;5073522;28;20007;-76
2024/01/04 06:57:33;;;;;;;;;;;16.00;84.60;;;;;;5073672;28;19947;-76
2024/01/04 06:59:58;;;;;;;;;;;16.00;86.10;;;;;;5073719;28;19963;-76
2024/01/04 07:02:25;;;;;;;;;;;16.00;85.50;;;;;;5073604;28;19908;-73
2024/01/04 07:04:50;;;;;;;;;;;16.00;86.00;;;;;;5073142;28;19927;-72
2024/01/04 07:07:16;;;;;;;;;;;16.20;86.10;;;;;;5073264;28;19920;-73
2024/01/04 07:09:41;;;;;;;;;;;15.90;86.00;;;;;;5073192;28;19961;-73
2024/01/04 07:12:07;;;;;;;;;;;16.00;86.20;;;;;;5073221;28;19932;-72
2024/01/04 07:14:37;;;;;;;;;;;16.40;86.00;;;;;;5073394;28;19954;-72
2024/01/04 07:17:03;;;;;;;;;;;16.00;85.80;;;;;;5073430;28;19970;-73
2024/01/04 07:19:29;;;;;;;;;;;16.10;86.30;;;;;;5073499;28;19920;-73
2024/01/04 07:21:54;;;;;;;;;;;16.00;85.90;;;;;;5073055;28;19909;-73
2024/01/04 07:24:20;;;;;;;;;;;16.00;86.00;;;;;;5073029;28;19916;-73
2024/01/04 07:26:45;;;;;;;;;;;16.10;86.00;;;;;;5072832;28;19909;-74
2024/01/04 07:29:11;;;;;;;;;;;16.00;85.80;;;;;;5072919;28;20367;-72
2024/01/04 07:31:36;;;;;;;;;;;16.00;85.70;;;;;;5072889;28;20422;-73
2024/01/04 07:34:03;;;;;;;;;;;16.00;85.80;;;;;;5072916;28;19909;-74
2024/01/04 07:36:28;;;;;;;;;;;16.00;85.90;;;;;;5072830;28;20409;-73
2024/01/04 07:38:54;;;;;;;;;;;15.90;85.90;;;;;;5072978;28;19916;-75
2024/01/04 07:41:19;;;;;;;;;;;16.10;86.00;;;;;;5072788;28;19914;-72
2024/01/04 07:43:45;;;;;;;;;;;16.00;86.10;;;;;;5072988;28;19963;-73
2024/01/04 07:46:10;;;;;;;;;;;16.00;86.00;;;;;;5072949;28;19931;-72
2024/01/04 07:48:36;;;;;;;;;;;16.00;85.70;;;;;;5072605;28;19915;-72
2024/01/04 07:51:01;;;;;;;;;;;16.00;85.90;;;;;;5072654;28;19916;-72
2024/01/04 07:53:27;;;;;;;;;;;16.00;85.60;;;;;;5072892;28;20415;-72
2024/01/04 07:55:52;;;;;;;;;;;16.10;86.10;;;;;;5072552;28;20392;-73
2024/01/04 07:58:18;;;;;;;;;;;15.90;85.70;;;;;;5072582;28;20042;-71
2024/01/04 08:00:43;;;;;;;;;;;16.00;85.80;;;;;;5072493;28;19912;-72
2024/01/04 08:03:09;;;;;;;;;;;16.00;85.20;;;;;;5072297;28;19924;-74
2024/01/04 08:05:34;;;;;;;;;;;16.00;86.00;;;;;;5072638;28;19912;-73
2024/01/04 08:08:00;;;;;;;;;;;15.90;85.50;;;;;;5072527;28;19915;-72
2024/01/04 08:10:26;;;;;;;;;;;15.90;85.70;;;;;;5072523;28;19908;-74
2024/01/04 08:12:52;;;;;;;;;;;16.00;85.60;;;;;;5072302;28;20011;-76
2024/01/04 08:15:17;;;;;;;;;;;16.00;85.60;;;;;;5072435;28;19924;-76
2024/01/04 08:17:43;;;;;;;;;;;16.00;85.50;;;;;;5072426;28;19916;-75
2024/01/04 08:20:09;;;;;;;;;;;15.90;85.30;;;;;;5072177;28;20490;-74
2024/01/04 08:22:35;;;;;;;;;;;15.90;83.70;;;;;;5072636;28;19908;-75
2024/01/04 08:25:00;;;;;;;;;;;15.90;85.90;;;;;;5072803;28;19908;-73
2024/01/04 08:27:26;;;;;;;;;;;15.90;85.30;;;;;;5072537;28;20365;-72
2024/01/04 08:29:51;;;;;;;;;;;15.90;85.80;;;;;;5072185;28;20427;-73
2024/01/04 08:32:17;;;;;;;;;;;15.90;86.10;;;;;;5072285;28;19908;-73
2024/01/04 08:34:43;;;;;;;;;;;16.00;86.30;;;;;;5072449;28;20393;-73
2024/01/04 08:37:09;;;;;;;;;;;16.10;86.00;;;;;;5072254;28;19913;-73
2024/01/04 08:39:34;;;;;;;;;;;16.00;86.10;;;;;;5072170;28;20325;-73
2024/01/04 08:42:00;;;;;;;;;;;15.90;86.00;;;;;;5072076;28;19930;-73
2024/01/04 08:44:26;;;;;;;;;;;15.90;86.00;;;;;;5072187;28;19915;-73
2024/01/04 08:46:53;;;;;;;;;;;16.00;86.20;;;;;;5072408;28;19913;-73
2024/01/04 08:49:19;;;;;;;;;;;16.00;86.00;;;;;;5072356;28;19916;-74
2024/01/04 08:51:44;;;;;;;;;;;15.90;85.40;;;;;;5071947;28;20382;-72
2024/01/04 08:54:10;;;;;;;;;;;15.90;86.10;;;;;;5071837;28;19934;-78
2024/01/04 08:56:36;;;;;;;;;;;16.00;86.20;;;;;;5071842;28;19913;-72
2024/01/04 08:59:03;;;;;;;;;;;16.10;85.90;;;;;;5071923;28;20007;-72
2024/01/04 09:01:29;;;;;;;;;;;15.90;85.60;;;;;;5073688;28;19912;-72
2024/01/04 09:03:55;;;;;;;;;;;15.90;86.00;;;;;;5075333;28;19927;-72
2024/01/04 09:06:21;;;;;;;;;;;16.00;86.40;;;;;;5075694;28;19991;-73
2024/01/04 09:08:47;;;;;;;;;;;16.00;86.10;;;;;;5075402;28;19915;-72
2024/01/04 09:11:13;;;;;;;;;;;16.00;85.90;;;;;;5075614;28;20316;-72
2024/01/04 09:13:39;;;;;;;;;;;16.00;86.10;;;;;;5075375;28;19913;-72
2024/01/04 09:16:05;;;;;;;;;;;15.90;85.60;;;;;;5075494;28;19955;-72
2024/01/04 09:18:33;;;;;;;;;;;16.00;85.70;;;;;;5075146;28;20497;-75
2024/01/04 09:20:58;;;;;;;;;;;15.90;86.20;;;;;;5075435;28;19958;-73
2024/01/04 09:23:24;;;;;;;;;;;16.00;86.20;;;;;;5075337;28;19912;-72
2024/01/04 09:25:50;;;;;;;;;;;16.10;86.20;;;;;;5075410;28;19962;-75
2024/01/04 09:28:18;;;;;;;;;;;16.00;86.10;;;;;;5074942;28;19909;-75
2024/01/04 09:30:44;;;;;;;;;;;16.00;85.80;;;;;;5075356;28;20337;-74
2024/01/04 09:33:11;;;;;;;;;;;16.00;86.10;;;;;;5074843;28;20650;-75
2024/01/04 09:35:37;;;;;;;;;;;16.00;86.20;;;;;;5074882;28;19936;-75
2024/01/04 09:38:03;;;;;;;;;;;16.20;86.10;;;;;;5074782;28;19916;-74
2024/01/04 09:40:29;;;;;;;;;;;15.90;85.20;;;;;;5074968;28;20258;-75
2024/01/04 09:42:55;;;;;;;;;;;16.00;86.00;;;;;;5074684;28;19954;-71
2024/01/04 09:45:22;;;;;;;;;;;15.90;86.00;;;;;;5074597;28;19909;-72
2024/01/04 09:47:50;;;;;;;;;;;15.90;86.30;;;;;;5075002;28;19909;-72
2024/01/04 09:50:16;;;;;;;;;;;16.00;86.30;;;;;;5074845;28;19916;-71
2024/01/04 09:52:45;;;;;;;;;;;16.00;86.00;;;;;;5074880;28;19916;-71
2024/01/04 09:55:16;;;;;;;;;;;15.90;86.20;;;;;;5074480;28;20391;-71
2024/01/04 09:57:57;;;;;;;;;;;16.00;86.00;;;;;;5074305;28;19908;-71
2024/01/04 10:00:23;;;;;;;;;;;15.90;85.60;;;;;;5074589;28;19923;-71
2024/01/04 10:02:50;;;;;;;;;;;15.90;85.50;;;;;;5074383;28;19991;-71
2024/01/04 10:05:16;;;;;;;;;;;15.90;85.60;;;;;;5074318;28;20431;-71
2024/01/04 10:07:56;;;;;;;;;;;16.00;85.80;;;;;;5074514;28;20011;-77
2024/01/04 10:10:23;;;;;;;;;;;15.90;80.60;;;;;;5074262;28;19912;-77
2024/01/04 10:12:49;;;;;;;;;;;15.90;86.10;;;;;;5077300;28;19909;-78
2024/01/04 10:15:16;;;;;;;;;;;16.20;86.10;;;;;;5074146;28;20386;-77
2024/01/04 10:17:45;;;;;;;;;;;15.90;85.90;;;;;;5074085;28;20363;-75
2024/01/04 10:20:11;;;;;;;;;;;15.90;86.10;;;;;;5073975;28;19917;-75
2024/01/04 10:22:37;;;;;;;;;;;15.90;85.90;;;;;;5074336;28;20003;-75
2024/01/04 10:25:06;;;;;;;;;;;15.90;85.80;;;;;;5074201;28;20306;-78
2024/01/04 10:27:32;;;;;;;;;;;15.90;85.20;;;;;;5074628;28;20325;-76
2024/01/04 10:30:05;;;;;;;;;;;15.90;85.80;;;;;;5073896;28;19999;-79
2024/01/04 10:32:31;;;;;;;;;;;15.90;80.40;;;;;;5074085;28;19962;-78
2024/01/04 10:35:04;;;;;;;;;;;15.90;85.90;;;;;;5073971;28;19908;-77
2024/01/04 10:37:30;;;;;;;;;;;15.90;80.50;;;;;;5073850;28;19999;-86
2024/01/04 10:39:56;;;;;;;;;;;15.90;85.80;;;;;;5074247;28;20019;-77
2024/01/04 10:42:22;;;;;;;;;;;15.90;85.80;;;;;;5073912;28;19908;-85
2024/01/04 10:44:52;;;;;;;;;;;15.90;85.30;;;;;;5074654;28;19908;-84
2024/01/04 10:47:18;;;;;;;;;;;15.90;80.40;;;;;;5074003;28;19908;-77
2024/01/04 10:49:45;;;;;;;;;;;16.00;85.50;;;;;;5074163;28;19943;-84
2024/01/04 10:52:13;;;;;;;;;;;15.90;85.60;;;;;;5073949;28;19955;-78
2024/01/04 10:54:41;;;;;;;;;;;15.90;85.60;;;;;;5073597;28;19913;-78
2024/01/04 10:57:08;;;;;;;;;;;16.00;85.50;;;;;;5073516;28;19915;-77
2024/01/04 10:59:34;;;;;;;;;;;16.00;85.20;;;;;;5073131;28;20014;-79
2024/01/04 11:02:01;;;;;;;;;;;16.00;84.80;;;;;;5073225;28;19959;-79
2024/01/04 11:04:27;;;;;;;;;;;16.00;85.50;;;;;;5073195;28;20040;-76
2024/01/04 11:06:53;;;;;;;;;;;16.10;85.30;;;;;;5073436;28;19908;-76
2024/01/04 11:09:20;;;;;;;;;;;16.00;85.20;;;;;;5072929;28;20287;-77
2024/01/04 11:11:48;;;;;;;;;;;16.00;85.30;;;;;;5073039;28;19935;-77
2024/01/04 11:14:14;;;;;;;;;;;16.00;85.20;;;;;;5072981;28;19918;-75
2024/01/04 11:16:56;;;;;;;;;;;16.00;85.30;;;;;;5072830;28;20003;-79
2024/01/04 11:19:49;;;;;;;;;;;16.00;80.20;;;;;;5072765;28;19917;-77
2024/01/04 11:22:21;;;;;;;;;;;16.00;80.10;;;;;;5072977;28;19961;-77
2024/01/04 11:24:53;;;;;;;;;;;16.30;80.50;;;;;;5072734;28;20377;-77
2024/01/04 11:27:20;;;;;;;;;;;16.10;85.70;;;;;;5072880;28;19919;-76
2024/01/04 11:29:48;;;;;;;;;;;16.00;85.40;;;;;;5073161;28;19908;-77
2024/01/04 11:32:15;;;;;;;;;;;16.00;85.40;;;;;;5073109;28;19999;-76
2024/01/04 11:34:41;;;;;;;;;;;16.00;85.70;;;;;;5072993;28;19935;-76
2024/01/04 11:37:25;;;;;;;;;;;16.00;85.60;;;;;;5072897;28;19921;-75
2024/01/04 11:39:57;;;;;;;;;;;15.90;80.20;;;;;;5072764;28;19924;-72
2024/01/04 11:42:35;;;;;;;;;;;15.90;80.30;;;;;;5072704;28;19909;-76
2024/01/04 11:45:04;;;;;;;;;;;15.90;80.40;;;;;;5072738;28;20003;-75
2024/01/04 11:47:37;;;;;;;;;;;16.00;85.60;;;;;;5072647;28;19912;-75
2024/01/04 11:50:12;;;;;;;;;;;15.90;80.40;;;;;;5072709;28;19909;-78
2024/01/04 11:52:37;;;;;;;;;;;15.90;85.00;;;;;;5079356;28;20294;-84
2024/01/04 11:55:03;;;;;;;;;;;16.00;85.70;;;;;;5072595;28;19908;-83
2024/01/04 11:57:29;;;;;;;;;;;15.90;84.40;;;;;;5072723;28;19913;-73
2024/01/04 11:59:55;;;;;;;;;;;15.90;85.50;;;;;;5072600;28;19940;-74
2024/01/04 12:02:21;;;;;;;;;;;15.90;84.90;;;;;;5072507;28;20375;-75
2024/01/04 12:04:47;;;;;;;;;;;15.90;85.80;;;;;;5072584;28;19982;-75
2024/01/04 12:07:13;;;;;;;;;;;15.90;85.50;;;;;;5072507;28;19908;-78
2024/01/04 12:09:39;;;;;;;;;;;15.80;85.60;;;;;;5072320;28;19931;-75
2024/01/04 12:12:07;;;;;;;;;;;15.90;85.70;;;;;;5072598;28;19915;-74
2024/01/04 12:14:42;;;;;;;;;;;15.90;84.90;;;;;;5072679;28;19909;-75
2024/01/04 12:17:07;;;;;;;;;;;15.90;85.70;;;;;;5072447;28;19916;-74
2024/01/04 12:19:33;;;;;;;;;;;15.90;85.40;;;;;;5072641;28;19916;-71
2024/01/04 12:21:59;;;;;;;;;;;15.90;85.60;;;;;;5072124;28;19943;-72
2024/01/04 12:24:28;;;;;;;;;;;15.90;85.50;;;;;;5072344;28;19931;-72
2024/01/04 12:26:54;;;;;;;;;;;15.90;85.60;;;;;;5072169;28;19908;-72
2024/01/04 12:29:21;;;;;;;;;;;15.90;85.20;;;;;;5072305;28;20363;-71
2024/01/04 12:31:49;;;;;;;;;;;15.90;85.30;;;;;;5072146;28;19908;-74
2024/01/04 12:34:15;;;;;;;;;;;15.70;85.20;;;;;;5072232;28;19954;-78
2024/01/04 12:36:42;;;;;;;;;;;15.90;85.30;;;;;;5074751;28;19908;-72
2024/01/04 12:39:09;;;;;;;;;;;15.90;85.00;;;;;;5076165;28;19924;-72
2024/01/04 12:41:37;;;;;;;;;;;15.80;85.10;;;;;;5076295;28;19987;-72
2024/01/04 12:44:04;;;;;;;;;;;15.90;85.10;;;;;;5075931;28;19952;-71
2024/01/04 12:46:33;;;;;;;;;;;15.90;84.90;;;;;;5076221;28;19909;-70
2024/01/04 12:49:06;;;;;;;;;;;15.90;80.40;;;;;;5076016;28;20067;-71
2024/01/04 12:51:35;;;;;;;;;;;15.80;79.70;;;;;;5076232;28;19909;-70
2024/01/04 12:54:04;;;;;;;;;;;15.90;84.80;;;;;;5075865;28;19916;-77
2024/01/04 12:56:31;;;;;;;;;;;16.00;79.60;;;;;;5075863;28;19962;-76
2024/01/04 12:59:01;;;;;;;;;;;15.80;84.70;;;;;;5075607;28;19999;-75
2024/01/04 13:01:27;;;;;;;;;;;15.90;84.40;;;;;;5075942;28;19908;-75
2024/01/04 13:03:53;;;;;;;;;;;15.80;85.00;;;;;;5075614;28;19956;-75
2024/01/04 13:06:20;;;;;;;;;;;15.80;84.20;;;;;;5075609;28;19974;-75
2024/01/04 13:08:46;;;;;;;;;;;15.90;84.70;;;;;;5075640;28;19985;-76
2024/01/04 13:11:11;;;;;;;;;;;15.80;84.80;;;;;;5076047;28;19908;-75
2024/01/04 13:13:37;;;;;;;;;;;15.80;84.80;;;;;;5075560;28;19908;-76
2024/01/04 13:16:04;;;;;;;;;;;15.90;85.00;;;;;;5075420;28;19908;-76
2024/01/04 13:18:30;;;;;;;;;;;15.80;84.40;;;;;;5075306;28;20366;-75
2024/01/04 13:20:55;;;;;;;;;;;15.80;84.80;;;;;;5075733;28;19920;-76
2024/01/04 13:23:21;;;;;;;;;;;15.90;84.40;;;;;;5075379;28;19962;-71
2024/01/04 13:25:46;;;;;;;;;;;15.90;84.90;;;;;;5075288;28;20003;-71
2024/01/04 13:28:12;;;;;;;;;;;15.70;84.90;;;;;;5075136;28;19908;-71
2024/01/04 13:30:38;;;;;;;;;;;15.80;84.70;;;;;;5075217;28;19908;-72
2024/01/04 13:33:04;;;;;;;;;;;15.70;84.90;;;;;;5075593;28;19915;-72
2024/01/04 13:35:30;;;;;;;;;;;15.70;85.00;;;;;;5074999;28;19913;-71
2024/01/04 13:37:56;;;;;;;;;;;15.70;84.70;;;;;;5075015;28;19962;-71
2024/01/04 13:40:23;;;;;;;;;;;15.70;84.60;;;;;;5075715;28;19916;-75
2024/01/04 13:42:49;;;;;;;;;;;15.80;84.70;;;;;;5075071;28;20340;-75
2024/01/04 13:45:16;;;;;;;;;;;15.70;85.00;;;;;;5074922;28;19931;-75
2024/01/04 13:47:42;;;;;;;;;;;15.70;84.90;;;;;;5074755;28;19962;-76
2024/01/04 13:50:08;;;;;;;;;;;15.70;84.70;;;;;;5075095;28;20328;-76
2024/01/04 13:52:34;;;;;;;;;;;15.80;82.80;;;;;;5075054;28;19908;-75
2024/01/04 13:55:00;;;;;;;;;;;15.80;84.80;;;;;;5074938;28;19912;-76
2024/01/04 13:57:26;;;;;;;;;;;15.90;84.80;;;;;;5074853;28;19909;-75
2024/01/04 13:59:54;;;;;;;;;;;15.80;84.60;;;;;;5074816;28;20046;-76
2024/01/04 14:02:20;;;;;;;;;;;15.70;84.10;;;;;;5074416;28;19912;-76
2024/01/04 14:04:45;;;;;;;;;;;16.00;84.60;;;;;;5074520;28;19928;-76
2024/01/04 14:07:11;;;;;;;;;;;15.80;84.80;;;;;;5074784;28;19996;-75
2024/01/04 14:09:37;;;;;;;;;;;15.80;84.80;;;;;;5074882;28;19920;-76
2024/01/04 14:12:03;;;;;;;;;;;15.70;84.60;;;;;;5074683;28;20303;-76